Time;durP1;ratioP1;P1;durP2;ratioP2;P2;SDS_P1;SDS_P2;PMS_P1;PMS_P2;Temp;Humidity;BMP_temperature;BMP_pressure;BME280_temperature;BME280_humidity;BME280_pressure;Samples;Min_cycle;Max_cycle;Signal;HPM_P1;HPM_P2
2023/12/30 00:00:19;;;;;;;2.95;2.40;;;11.80;99.90;;;9.63;100.00;100286.59;4983723;28;20161;-80
2023/12/30 00:02:49;;;;;;;4.55;2.35;;;12.10;78.80;;;9.69;100.00;100297.84;4991155;28;20469;-80
2023/12/30 00:05:19;;;;;;;3.97;2.33;;;11.30;1.00;;;9.45;100.00;100290.44;4973144;28;20070;-79
2023/12/30 00:07:49;;;;;;;4.80;2.28;;;11.60;25.40;;;9.60;100.00;100304.16;4971098;28;20042;-79
2023/12/30 00:10:16;;;;;;;4.38;2.30;;;12.10;1.00;;;10.13;100.00;100380.13;4991907;28;20066;-80
2023/12/30 00:12:43;;;;;;;3.22;2.00;;;11.80;99.90;;;9.32;100.00;100254.84;4988417;28;20038;-79
2023/12/30 00:15:28;;;;;;;2.53;1.98;;;11.20;99.90;;;10.08;100.00;100400.41;4979754;28;20042;-79
2023/12/30 00:17:58;;;;;;;3.92;2.30;;;11.90;99.90;;;9.93;100.00;100346.38;4987956;28;20034;-79
2023/12/30 00:20:27;;;;;;;4.10;2.40;;;11.20;88.80;;;9.78;100.00;100344.97;4990851;28;20154;-79
2023/12/30 00:22:57;;;;;;;3.70;2.13;;;11.20;36.80;;;9.54;100.00;100301.69;4991030;28;20038;-80
2023/12/30 00:25:25;;;;;;;6.70;2.17;;;11.50;65.30;;;9.99;100.00;100374.28;4990554;28;20144;-79
2023/12/30 00:27:53;;;;;;;4.60;2.13;;;11.20;99.90;;;10.04;100.00;100368.03;4972177;28;20046;-79
2023/12/30 00:30:20;;;;;;;3.72;2.60;;;11.20;99.90;;;9.73;100.00;100317.91;4959737;28;20564;-79
2023/12/30 00:32:47;;;;;;;3.45;1.85;;;10.80;99.90;;;9.90;100.00;100367.47;4991584;28;20042;-79
2023/12/30 00:35:14;;;;;;;4.13;1.92;;;11.70;99.90;;;9.75;100.00;100339.75;4957453;28;20078;-80
2023/12/30 00:37:41;;;;;;;3.80;1.80;;;11.30;99.90;;;9.63;100.00;100327.72;4991327;28;20050;-80
2023/12/30 00:40:12;;;;;;;2.78;1.77;;;12.10;1.00;;;9.72;100.00;100345.06;4967167;28;20078;-78
2023/12/30 00:42:43;;;;;;;3.17;2.42;;;11.20;90.60;;;9.62;100.00;100337.41;4975784;28;20054;-80
2023/12/30 00:45:10;;;;;;;6.53;2.70;;;12.20;1.00;;;9.51;100.00;100328.84;4989884;28;20833;-79
2023/12/30 00:47:37;;;;;;;6.25;2.72;;;11.60;99.90;;;9.84;100.00;100417.56;4990456;28;20034;-79
2023/12/30 00:50:05;;;;;;;2.92;2.13;;;11.30;99.90;;;9.81;100.00;100413.22;4989879;28;20061;-79
2023/12/30 00:52:33;;;;;;;3.10;2.05;;;11.00;99.90;;;9.85;100.00;100427.16;4966738;28;20042;-80
2023/12/30 00:55:00;;;;;;;2.58;1.92;;;11.00;99.90;;;9.93;100.00;100435.75;4964358;28;20046;-81
2023/12/30 00:57:27;;;;;;;4.05;2.00;;;11.00;99.90;;;9.49;100.00;100375.31;4961987;28;20437;-81
2023/12/30 00:59:54;;;;;;;7.50;2.58;;;11.30;1.00;;;9.60;100.00;100394.34;4978116;28;20109;-81
2023/12/30 01:02:21;;;;;;;2.67;2.10;;;10.90;1.00;;;9.70;100.00;100426.56;4960183;28;20046;-81
2023/12/30 01:04:48;;;;;;;5.47;2.53;;;12.20;1.00;;;9.03;100.00;100359.50;4973818;28;20096;-80
2023/12/30 01:07:16;;;;;;;6.20;2.40;;;11.00;1.00;;;9.52;100.00;100443.53;4963242;28;20062;-82
2023/12/30 01:09:43;;;;;;;3.88;2.05;;;10.70;1.00;;;9.32;100.00;100418.50;4978106;28;20039;-79
2023/12/30 01:12:10;;;;;;;6.47;2.78;;;10.60;1.00;;;9.42;100.00;100432.34;4970608;28;20606;-79
2023/12/30 01:14:37;;;;;;;3.63;2.00;;;10.90;1.00;;;9.04;100.00;100403.22;4968388;28;20486;-79
2023/12/30 01:17:04;;;;;;;5.68;3.00;;;10.60;1.00;;;8.84;100.00;100355.47;4969417;28;20133;-79
2023/12/30 01:19:31;;;;;;;3.60;2.45;;;10.60;1.00;;;9.39;100.00;100440.28;4975146;28;20061;-79
2023/12/30 01:21:58;;;;;;;4.97;2.45;;;11.70;1.00;;;9.52;100.00;100469.81;4982333;28;20061;-80
2023/12/30 01:24:26;;;;;;;5.40;3.00;;;10.50;1.00;;;8.96;100.00;100373.63;4966662;28;20050;-78
2023/12/30 01:26:53;;;;;;;3.22;2.10;;;10.50;1.00;;;9.46;100.00;100465.53;4964396;28;20050;-79
2023/12/30 01:29:20;;;;;;;4.90;2.28;;;10.50;1.00;;;9.15;100.00;100418.78;4971854;28;20049;-78
2023/12/30 01:31:47;;;;;;;6.65;2.50;;;10.50;1.00;;;9.27;100.00;100453.63;4972715;28;20129;-78
2023/12/30 01:34:14;;;;;;;3.00;2.70;;;10.40;1.00;;;9.29;100.00;100455.34;4985888;28;20057;-78
2023/12/30 01:36:41;;;;;;;5.35;2.60;;;10.50;2.20;;;9.28;100.00;100457.97;4971664;28;20567;-78
2023/12/30 01:39:08;;;;;;;3.95;2.13;;;10.50;4.30;;;8.70;100.00;100368.81;4986631;28;20509;-80
2023/12/30 01:41:36;;;;;;;4.20;2.30;;;10.80;4.40;;;8.85;100.00;100397.41;4988653;28;20042;-78
2023/12/30 01:44:03;;;;;;;4.70;2.08;;;11.50;4.60;;;9.27;100.00;100458.88;4963675;28;20409;-78
2023/12/30 01:46:30;;;;;;;5.90;2.95;;;10.40;4.90;;;9.17;100.00;100455.53;4987562;28;20100;-79
2023/12/30 01:48:58;;;;;;;4.00;2.38;;;10.60;7.90;;;9.17;100.00;100448.50;4980053;28;20154;-78
2023/12/30 01:51:28;;;;;;;5.85;2.60;;;10.40;6.60;;;9.18;100.00;100462.50;4988375;28;20738;-77
2023/12/30 01:53:57;;;;;;;3.50;2.22;;;10.40;9.90;;;9.13;100.00;100465.22;4973231;28;20049;-78
2023/12/30 01:56:25;;;;;;;3.95;2.53;;;11.30;12.00;;;9.19;100.00;100466.88;4971301;28;20115;-79
2023/12/30 01:58:53;;;;;;;2.85;1.80;;;10.40;14.80;;;8.67;100.00;100392.47;4987553;28;20129;-78
2023/12/30 02:01:27;;;;;;;3.50;2.28;;;10.40;18.40;;;9.21;100.00;100481.72;4968563;28;20057;-78
2023/12/30 02:03:55;;;;;;;3.10;2.00;;;10.40;18.10;;;9.19;100.00;100490.50;4976561;28;20050;-78
2023/12/30 02:06:22;;;;;;;4.25;2.30;;;10.30;15.70;;;9.16;100.00;100495.81;4980343;28;20045;-78
2023/12/30 02:08:50;;;;;;;3.72;2.38;;;11.40;18.90;;;9.14;100.00;100481.84;4975608;28;20042;-78
2023/12/30 02:11:17;;;;;;;5.95;2.50;;;11.00;19.80;;;9.12;100.00;100475.72;4992089;28;20068;-78
2023/12/30 02:13:45;;;;;;;6.05;2.20;;;10.30;18.40;;;9.21;100.00;100507.09;4986297;28;20047;-80
2023/12/30 02:16:12;;;;;;;3.92;2.38;;;10.30;17.80;;;9.12;100.00;100487.09;4977775;28;20046;-79
2023/12/30 02:18:39;;;;;;;4.90;2.10;;;10.80;16.30;;;8.60;100.00;100383.84;4975931;28;20065;-79
2023/12/30 02:21:07;;;;;;;4.75;2.33;;;11.00;13.40;;;9.11;100.00;100479.25;4973372;28;20409;-79
2023/12/30 02:23:35;;;;;;;5.97;2.22;;;10.40;11.00;;;8.84;100.00;100447.31;4983126;28;21032;-78
2023/12/30 02:26:02;;;;;;;5.95;2.17;;;10.90;14.60;;;8.69;100.00;100419.53;4966427;28;20133;-80
2023/12/30 02:28:29;;;;;;;4.65;2.88;;;10.30;15.40;;;9.04;100.00;100474.09;4988002;28;20034;-79
2023/12/30 02:30:57;;;;;;;3.35;2.25;;;11.20;15.80;;;9.17;100.00;100489.66;4978683;28;20137;-79
2023/12/30 02:33:24;;;;;;;4.38;2.08;;;10.40;18.80;;;9.20;100.00;100498.31;4986063;28;20056;-78
2023/12/30 02:35:51;;;;;;;3.63;2.20;;;10.40;19.40;;;9.18;100.00;100499.25;4975516;28;20042;-79
2023/12/30 02:38:18;;;;;;;4.57;2.03;;;10.40;20.00;;;8.94;100.00;100472.50;4994341;28;20087;-78
2023/12/30 02:40:46;;;;;;;3.22;2.30;;;10.40;23.00;;;9.15;100.00;100502.78;4976137;28;20046;-78
2023/12/30 02:43:13;;;;;;;3.75;2.13;;;10.40;25.00;;;9.14;100.00;100505.47;4989139;28;20054;-78
2023/12/30 02:45:40;;;;;;;2.80;2.08;;;10.30;28.70;;;8.92;100.00;100485.66;4984578;28;20125;-78
2023/12/30 02:48:08;;;;;;;3.28;2.08;;;10.30;30.00;;;9.09;100.00;100502.91;4948685;28;20066;-78
2023/12/30 02:50:36;;;;;;;3.88;2.00;;;10.30;31.60;;;8.66;100.00;100467.66;4974589;28;20125;-78
2023/12/30 02:53:03;;;;;;;2.72;2.30;;;10.30;31.40;;;9.19;100.00;100525.47;4996162;28;20412;-78
2023/12/30 02:55:30;;;;;;;4.07;2.55;;;11.30;33.30;;;9.03;100.00;100506.50;4989522;28;20046;-79
2023/12/30 02:57:57;;;;;;;4.25;2.25;;;10.50;34.80;;;8.92;100.00;100488.28;4982920;28;20081;-78
2023/12/30 03:00:24;;;;;;;6.25;2.40;;;11.30;35.10;;;9.16;100.00;100524.69;4967645;28;20523;-78
2023/12/30 03:02:53;;;;;;;3.60;2.38;;;10.40;33.40;;;9.18;100.00;100507.13;4987341;28;20050;-80
2023/12/30 03:05:20;;;;;;;2.88;2.17;;;10.30;31.00;;;9.10;100.00;100503.75;4989171;28;20507;-79
2023/12/30 03:07:47;;;;;;;3.70;2.22;;;10.30;30.10;;;8.97;100.00;100488.19;4958183;28;20145;-79
2023/12/30 03:10:15;;;;;;;5.47;2.25;;;10.40;30.90;;;9.15;100.00;100504.56;4959429;28;20726;-79
2023/12/30 03:12:42;;;;;;;5.13;2.50;;;10.40;32.10;;;9.08;100.00;100520.41;4973699;28;20057;-79
2023/12/30 03:15:09;;;;;;;3.70;2.80;;;10.70;34.50;;;8.97;100.00;100508.34;4989895;28;20046;-79
2023/12/30 03:17:36;;;;;;;6.30;2.67;;;10.90;34.00;;;8.94;100.00;100504.88;4981387;28;20060;-80
2023/12/30 03:20:09;;;;;;;5.68;2.88;;;10.20;34.10;;;9.03;100.00;100518.72;4982024;28;20097;-79
2023/12/30 03:22:36;;;;;;;3.50;2.13;;;10.10;33.50;;;8.69;100.00;100465.03;4989053;28;20050;-79
2023/12/30 03:25:04;;;;;;;3.50;2.70;;;10.20;35.20;;;8.93;100.00;100511.00;4976428;28;20137;-79
2023/12/30 03:27:31;;;;;;;4.57;2.40;;;10.10;34.00;;;8.97;100.00;100518.84;4968607;28;20039;-80
2023/12/30 03:29:59;;;;;;;3.20;2.20;;;10.10;33.40;;;8.91;100.00;100512.81;4980352;28;20042;-78
2023/12/30 03:32:28;;;;;;;4.78;2.40;;;10.10;31.90;;;8.85;100.00;100498.91;4983426;28;20125;-80
2023/12/30 03:34:56;;;;;;;5.10;2.00;;;10.30;28.70;;;8.93;100.00;100490.03;4974522;28;20048;-80
2023/12/30 03:37:23;;;;;;;3.05;2.38;;;10.20;28.50;;;8.38;100.00;100424.31;4974019;28;20068;-80
2023/12/30 03:39:51;;;;;;;3.53;2.30;;;10.60;27.60;;;9.00;100.00;100496.03;4983720;28;20547;-79
2023/12/30 03:42:19;;;;;;;5.65;2.10;;;10.20;24.70;;;8.82;100.00;100472.69;4988622;28;20080;-80
2023/12/30 03:44:46;;;;;;;3.15;2.20;;;10.20;24.30;;;9.00;100.00;100511.78;4969878;28;20050;-79
2023/12/30 03:47:13;;;;;;;4.10;2.47;;;10.20;24.70;;;8.89;100.00;100476.97;4990780;28;20486;-80
2023/12/30 03:49:40;;;;;;;10.57;2.25;;;10.20;23.50;;;8.38;100.00;100386.75;4990153;28;20042;-79
2023/12/30 03:52:07;;;;;;;4.20;2.38;;;10.80;23.60;;;9.07;100.00;100497.66;4974935;28;20066;-79
2023/12/30 03:54:34;;;;;;;3.30;2.00;;;10.20;23.30;;;9.04;100.00;100500.34;4974982;28;20061;-78
2023/12/30 03:57:01;;;;;;;3.70;2.15;;;10.90;22.60;;;8.99;100.00;100496.94;4990728;28;20090;-79
2023/12/30 03:59:29;;;;;;;3.10;2.10;;;10.20;22.70;;;9.08;100.00;100511.69;4990194;28;20038;-79
2023/12/30 04:01:56;;;;;;;3.92;2.20;;;10.20;20.70;;;9.05;100.00;100506.44;4990764;28;20437;-78
2023/12/30 04:04:23;;;;;;;5.90;2.00;;;10.20;21.90;;;9.15;100.00;100512.44;4989554;28;20078;-79
2023/12/30 04:06:50;;;;;;;10.43;2.15;;;10.30;20.80;;;9.14;100.00;100510.72;4989353;28;20394;-78
2023/12/30 04:09:17;;;;;;;3.85;2.03;;;10.20;21.80;;;8.98;100.00;100487.34;4973893;28;20039;-79
2023/12/30 04:11:44;;;;;;;3.63;2.10;;;10.30;21.10;;;9.11;100.00;100501.13;5000554;28;20553;-79
2023/12/30 04:14:11;;;;;;;2.63;2.00;;;10.30;19.80;;;8.47;100.00;100406.72;4986369;28;20054;-79
2023/12/30 04:16:38;;;;;;;3.17;1.90;;;10.30;18.10;;;9.04;100.00;100508.22;4990058;28;20049;-79
2023/12/30 04:19:06;;;;;;;4.35;2.20;;;10.20;15.30;;;8.92;100.00;100482.16;4988334;28;20089;-80
2023/12/30 04:21:34;;;;;;;2.90;2.10;;;10.20;15.90;;;9.11;100.00;100516.00;4982028;28;20046;-78
2023/12/30 04:24:01;;;;;;;2.75;1.90;;;10.80;16.90;;;8.91;100.00;100497.06;4985114;28;20051;-78
2023/12/30 04:26:28;;;;;;;4.13;2.30;;;10.20;17.00;;;9.05;100.00;100502.06;4964972;28;20386;-77
2023/12/30 04:28:55;;;;;;;4.03;2.33;;;10.50;16.80;;;8.48;100.00;100416.34;4972077;28;20046;-78
2023/12/30 04:31:22;;;;;;;4.20;2.47;;;10.10;17.80;;;8.41;100.00;100427.78;4971371;28;20088;-77
2023/12/30 04:33:49;;;;;;;4.70;2.13;;;10.20;18.70;;;8.89;100.00;100522.41;4987944;28;20042;-78
2023/12/30 04:36:16;;;;;;;3.22;2.30;;;10.40;18.30;;;8.53;100.00;100459.13;4984443;28;20043;-77
2023/12/30 04:38:45;;;;;;;4.60;2.42;;;10.20;18.50;;;8.46;100.00;100433.84;4955958;28;20057;-78
2023/12/30 04:41:13;;;;;;;4.03;2.28;;;10.20;16.70;;;8.97;100.00;100505.72;4971804;28;20050;-77
2023/12/30 04:43:41;;;;;;;4.28;2.40;;;10.10;15.70;;;8.87;100.00;100492.72;4985100;28;20051;-78
2023/12/30 04:46:11;;;;;;;5.80;2.33;;;10.20;14.70;;;8.39;100.00;100438.31;4985338;28;20560;-78
2023/12/30 04:48:38;;;;;;;6.80;2.07;;;10.10;15.40;;;8.91;100.00;100518.03;4972046;28;20053;-78
2023/12/30 04:51:09;;;;;;;2.40;1.88;;;10.70;16.40;;;8.79;100.00;100502.47;4955838;28;20092;-78
2023/12/30 04:53:38;;;;;;;3.80;1.90;;;10.10;15.90;;;8.46;100.00;100466.16;4986161;28;20116;-77
2023/12/30 04:56:08;;;;;;;2.58;2.05;;;10.60;16.00;;;8.33;100.00;100447.13;4970941;28;20042;-77
2023/12/30 04:58:35;;;;;;;4.18;2.25;;;10.10;14.00;;;8.91;100.00;100538.16;4963544;28;20058;-79
2023/12/30 05:01:02;;;;;;;3.15;2.75;;;11.20;14.10;;;8.25;100.00;100420.13;4987171;28;20664;-78
2023/12/30 05:03:29;;;;;;;3.88;2.60;;;10.10;12.50;;;8.22;100.00;100426.31;4972026;28;20535;-79
2023/12/30 05:05:57;;;;;;;4.30;2.45;;;11.30;11.60;;;8.35;100.00;100463.69;4955998;28;20526;-79
2023/12/30 05:08:24;;;;;;;2.92;2.03;;;10.00;10.40;;;8.24;100.00;100447.22;4986274;28;20134;-79
2023/12/30 05:10:51;;;;;;;2.58;2.25;;;10.10;10.40;;;8.71;100.00;100506.94;4983667;28;20142;-78
2023/12/30 05:13:18;;;;;;;4.07;2.03;;;10.00;9.90;;;8.73;100.00;100524.41;4987182;28;20050;-78
2023/12/30 05:15:45;;;;;;;4.53;2.05;;;9.10;8.20;;;8.16;100.00;100436.00;4966950;28;20061;-77
2023/12/30 05:18:12;;;;;;;3.13;2.90;;;9.90;10.50;;;8.63;100.00;100513.19;4963075;28;20038;-77
2023/12/30 05:20:40;;;;;;;3.55;2.40;;;10.00;11.40;;;8.61;100.00;100506.22;4987331;28;20045;-77
2023/12/30 05:23:08;;;;;;;4.55;2.45;;;10.00;9.20;;;8.31;100.00;100462.00;4971256;28;20050;-78
2023/12/30 05:25:35;;;;;;;4.63;2.45;;;10.00;6.60;;;8.73;100.00;100524.41;4979820;28;20058;-77
2023/12/30 05:28:03;;;;;;;3.30;2.35;;;10.90;5.50;;;8.04;100.00;100424.78;4979176;28;20042;-77
2023/12/30 05:30:30;;;;;;;6.72;2.40;;;9.90;6.70;;;8.42;100.00;100501.19;4984256;28;20052;-77
2023/12/30 05:32:57;;;;;;;4.97;2.70;;;9.90;6.90;;;8.72;100.00;100530.56;4968085;28;20050;-78
2023/12/30 05:35:24;;;;;;;3.22;2.25;;;10.10;5.00;;;8.70;100.00;100529.72;4985474;28;20042;-78
2023/12/30 05:37:51;;;;;;;7.18;3.30;;;10.40;2.50;;;8.79;100.00;100547.94;4964554;28;20046;-78
2023/12/30 05:40:18;;;;;;;3.63;2.67;;;10.00;1.00;;;8.83;100.00;100553.16;4986340;28;20061;-77
2023/12/30 05:42:45;;;;;;;3.00;2.40;;;10.00;1.00;;;8.79;100.00;100554.94;4976809;28;20165;-78
2023/12/30 05:45:12;;;;;;;3.58;2.33;;;9.90;1.00;;;8.78;100.00;100543.56;4983606;28;20047;-78
2023/12/30 05:47:39;;;;;;;3.13;2.30;;;10.00;1.00;;;8.87;100.00;100570.59;4971077;28;20042;-78
2023/12/30 05:50:07;;;;;;;4.90;2.65;;;10.00;1.00;;;8.65;100.00;100519.28;4985402;28;20038;-79
2023/12/30 05:52:34;;;;;;;4.65;2.40;;;10.00;1.00;;;8.70;100.00;100531.44;4990807;28;20061;-78
2023/12/30 05:55:02;;;;;;;5.85;2.60;;;10.00;1.00;;;8.30;100.00;100477.75;4973844;28;20046;-78
2023/12/30 05:57:29;;;;;;;3.33;2.60;;;10.00;1.00;;;8.75;100.00;100542.78;4969615;28;20125;-78
2023/12/30 05:59:58;;;;;;;2.63;2.00;;;10.00;1.00;;;8.74;100.00;100541.88;4967703;28;20057;-79
2023/12/30 06:02:25;;;;;;;4.20;2.38;;;10.10;2.30;;;8.80;100.00;100561.94;4998773;28;20494;-78
2023/12/30 06:04:52;;;;;;;5.20;2.65;;;10.00;3.90;;;8.60;100.00;100525.47;4993498;28;20057;-79
2023/12/30 06:07:24;;;;;;;5.85;2.13;;;10.00;5.40;;;8.83;100.00;100547.91;4968658;28;20046;-80
2023/12/30 06:09:51;;;;;;;6.18;3.10;;;10.00;5.50;;;8.45;100.00;100493.28;4958322;28;20043;-80
2023/12/30 06:12:19;;;;;;;5.03;2.55;;;10.00;7.60;;;8.76;100.00;100549.75;4961148;28;20062;-79
2023/12/30 06:14:46;;;;;;;4.45;2.28;;;10.00;7.50;;;8.96;100.00;100588.81;4970938;28;20498;-79
2023/12/30 06:17:13;;;;;;;4.55;2.67;;;10.60;8.60;;;8.82;100.00;100556.63;5008136;28;20065;-80
2023/12/30 06:19:40;;;;;;;3.60;2.38;;;10.50;9.00;;;8.76;100.00;100544.50;4993911;28;20133;-80
2023/12/30 06:22:07;;;;;;;4.78;2.00;;;10.00;10.40;;;8.88;100.00;100599.41;4993623;28;20667;-79
2023/12/30 06:24:35;;;;;;;4.95;2.38;;;10.50;15.30;;;8.80;100.00;100596.88;4985502;28;20117;-79
2023/12/30 06:27:02;;;;;;;4.00;2.65;;;10.10;15.70;;;8.88;100.00;100599.41;4977833;28;20070;-80
2023/12/30 06:29:30;;;;;;;4.13;2.63;;;10.00;16.30;;;8.87;100.00;100595.06;4967241;28;20046;-80
2023/12/30 06:31:59;;;;;;;;;;;10.80;16.90;;;8.82;100.00;100591.63;4982936;28;20117;-81
2023/12/30 06:34:26;;;;;;;5.18;2.00;;;10.20;18.00;;;8.23;100.00;100495.31;4986293;28;19949;-80
2023/12/30 06:36:53;;;;;;;6.10;2.25;;;10.00;18.00;;;8.25;100.00;100487.44;4977097;28;20058;-79
2023/12/30 06:39:20;;;;;;;4.63;1.98;;;10.00;18.80;;;8.90;100.00;100599.41;4977788;28;20054;-81
2023/12/30 06:41:47;;;;;;;2.83;1.85;;;10.80;20.20;;;8.73;100.00;100570.75;4963406;28;20046;-80
2023/12/30 06:44:14;;;;;;;4.43;2.30;;;10.00;18.80;;;8.27;100.00;100483.03;4973886;28;20636;-80
2023/12/30 06:46:41;;;;;;;6.88;2.33;;;10.00;18.30;;;8.54;100.00;100546.53;4974437;28;20069;-79
2023/12/30 06:49:09;;;;;;;2.40;2.20;;;10.60;19.20;;;8.67;100.00;100558.59;4958884;28;20051;-78
2023/12/30 06:51:36;;;;;;;3.60;2.08;;;10.20;21.10;;;8.36;100.00;100515.25;4970633;28;20046;-79
2023/12/30 06:54:05;;;;;;;3.13;2.08;;;10.10;20.20;;;8.74;100.00;100564.63;4989597;28;20129;-79
2023/12/30 06:56:32;;;;;;;2.72;1.80;;;10.00;21.60;;;8.69;100.00;100553.31;4989794;28;20117;-80
2023/12/30 06:58:59;;;;;;;2.40;1.80;;;10.60;23.10;;;8.30;100.00;100496.09;4990643;28;20061;-80
2023/12/30 07:01:26;;;;;;;6.05;2.10;;;10.80;23.60;;;8.67;100.00;100574.34;4987340;28;20494;-80
2023/12/30 07:03:55;;;;;;;4.10;1.70;;;10.80;24.00;;;8.36;100.00;100494.25;4985592;28;20468;-79
2023/12/30 07:06:22;;;;;;;3.28;1.90;;;10.50;24.50;;;8.73;100.00;100571.63;4965553;28;20050;-80
2023/12/30 07:08:49;;;;;;;2.08;1.77;;;10.10;22.50;;;8.38;100.00;100517.84;4960728;28;20059;-79
2023/12/30 07:11:16;;;;;;;3.75;1.80;;;10.40;21.60;;;8.67;100.00;100561.22;4973008;28;20046;-80
2023/12/30 07:13:43;;;;;;;6.40;2.08;;;11.10;23.20;;;8.51;100.00;100532.59;4968565;28;20505;-79
2023/12/30 07:16:13;;;;;;;2.65;1.70;;;10.90;24.00;;;9.00;100.00;100592.28;4953732;28;20047;-79
2023/12/30 07:18:40;;;;;;;2.70;1.85;;;10.70;23.80;;;8.25;100.00;100476.94;4964201;28;20054;-78
2023/12/30 07:21:10;;;;;;;2.22;1.30;;;10.80;23.80;;;8.48;100.00;100505.50;4986107;28;20128;-78
2023/12/30 07:23:37;;;;;;;;;;;10.10;25.30;;;8.86;100.00;100567.09;4997206;28;20042;-78
2023/12/30 07:26:04;;;;;;;2.22;1.42;;;11.10;25.60;;;8.20;100.00;100477.00;4986746;28;19929;-79
2023/12/30 07:28:32;;;;;;;2.83;1.50;;;9.40;25.20;;;8.52;100.00;100536.06;4972323;28;20063;-79
2023/12/30 07:30:59;;;;;;;3.15;1.50;;;11.30;26.10;;;8.65;100.00;100558.63;4959515;28;20047;-79
2023/12/30 07:33:27;;;;;;;2.70;1.73;;;10.70;27.40;;;8.75;100.00;100563.75;5009588;28;20050;-79
2023/12/30 07:35:56;;;;;;;1.73;1.63;;;9.20;28.30;;;8.34;100.00;100526.63;4976442;28;20046;-78
2023/12/30 07:38:23;;;;;;;3.83;2.00;;;10.00;30.60;;;8.40;100.00;100547.53;4972932;28;20100;-78
2023/12/30 07:40:50;;;;;;;1.80;1.55;;;10.70;31.60;;;8.33;100.00;100524.88;4984178;28;20042;-79
2023/12/30 07:43:17;;;;;;;1.73;1.63;;;10.50;32.50;;;8.91;100.00;100630.88;4985397;28;20078;-78
2023/12/30 07:45:45;;;;;;;3.38;1.60;;;10.10;33.30;;;8.58;100.00;100561.34;4983175;28;20048;-79
2023/12/30 07:48:12;;;;;;;3.38;2.03;;;10.00;33.00;;;8.68;100.00;100590.94;4988809;28;20069;-79
2023/12/30 07:50:39;;;;;;;3.42;1.92;;;10.10;33.80;;;8.82;100.00;100630.09;4967903;28;20035;-78
2023/12/30 07:53:08;;;;;;;2.15;1.83;;;10.70;35.50;;;8.68;100.00;100593.56;4985602;28;20054;-78
2023/12/30 07:55:35;;;;;;;2.65;1.98;;;10.00;34.80;;;8.34;100.00;100526.63;4952501;28;20047;-78
2023/12/30 07:58:03;;;;;;;2.38;2.17;;;10.10;34.60;;;8.73;100.00;100599.59;4985224;28;20497;-78
2023/12/30 08:00:30;;;;;;;2.20;2.00;;;10.10;34.50;;;8.86;100.00;100597.72;4988595;28;20073;-78
2023/12/30 08:02:57;;;;;;;4.65;2.30;;;10.10;31.80;;;8.96;100.00;100606.34;4965736;28;20145;-78
2023/12/30 08:05:24;;;;;;;2.35;2.03;;;10.30;29.80;;;8.65;100.00;100568.22;4974168;28;20042;-78
2023/12/30 08:07:51;;;;;;;2.75;2.55;;;10.90;30.40;;;9.01;100.00;100625.50;4971752;28;20047;-78
2023/12/30 08:10:18;;;;;;;4.15;3.13;;;10.60;31.90;;;8.91;100.00;100606.38;4959777;28;20047;-79
2023/12/30 08:12:48;;;;;;;3.45;2.47;;;11.20;33.50;;;8.99;100.00;100619.41;4976471;28;20476;-79
2023/12/30 08:15:15;;;;;;;2.25;2.05;;;10.20;33.70;;;9.06;100.00;100618.44;4990277;28;20589;-78
2023/12/30 08:17:45;;;;;;;3.33;2.50;;;10.20;31.60;;;9.05;100.00;100608.81;4984893;28;20668;-79
2023/12/30 08:20:12;;;;;;;2.90;1.85;;;10.20;29.80;;;8.33;100.00;100494.31;4975664;28;20576;-79
2023/12/30 08:22:39;;;;;;;3.72;2.42;;;10.30;28.60;;;8.89;100.00;100576.69;4990958;28;20062;-78
2023/12/30 08:25:12;;;;;;;4.88;2.42;;;10.30;25.20;;;9.07;100.00;100615.78;4991955;28;20453;-78
2023/12/30 08:27:39;;;;;;;3.70;3.40;;;10.20;25.40;;;8.99;100.00;100608.91;4972487;28;20525;-79
2023/12/30 08:30:07;;;;;;;2.75;2.00;;;10.20;26.00;;;9.02;100.00;100620.25;4989220;28;20042;-79
2023/12/30 08:32:34;;;;;;;3.83;1.83;;;10.20;23.60;;;9.14;100.00;100650.69;4989157;28;20042;-78
2023/12/30 08:35:02;;;;;;;2.70;1.77;;;10.20;23.00;;;9.08;100.00;100629.78;4972327;28;20168;-79
2023/12/30 08:37:30;;;;;;;2.45;2.10;;;10.20;20.90;;;9.05;100.00;100635.94;4952702;28;20640;-79
2023/12/30 08:39:57;;;;;;;4.32;2.03;;;10.20;21.00;;;9.21;100.00;100640.97;4963322;28;20043;-80
2023/12/30 08:42:24;;;;;;;3.25;2.60;;;11.30;17.30;;;8.96;100.00;100609.81;4988910;28;20381;-80
2023/12/30 08:44:54;;;;;;;4.47;2.13;;;10.30;12.00;;;9.20;100.00;100623.50;4969845;28;20569;-81
2023/12/30 08:47:21;;;;;;;6.75;2.38;;;10.30;8.50;;;9.26;100.00;100649.66;4967393;28;20488;-80
2023/12/30 08:49:48;;;;;;;5.10;2.05;;;10.30;6.90;;;9.26;100.00;100648.81;4978526;28;20039;-81
2023/12/30 08:52:15;;;;;;;2.95;1.67;;;10.40;1.00;;;9.22;100.00;100640.09;4966548;28;20054;-80
2023/12/30 08:54:42;;;;;;;7.03;2.20;;;10.40;1.00;;;9.22;100.00;100613.84;4983596;28;20047;-80
2023/12/30 08:57:09;;;;;;;6.40;1.83;;;10.80;1.00;;;9.20;100.00;100619.09;4982813;28;20046;-80
2023/12/30 08:59:36;;;;;;;2.38;1.90;;;10.50;1.00;;;9.21;100.00;100593.72;4984881;28;20125;-80
2023/12/30 09:02:04;;;;;;;3.75;1.88;;;11.00;1.00;;;9.13;100.00;100595.56;4974723;28;20142;-80
2023/12/30 09:04:31;;;;;;;3.88;2.00;;;10.50;1.00;;;9.44;100.00;100634.50;4990157;28;20076;-80
2023/12/30 09:06:58;;;;;;;3.25;2.25;;;10.50;1.00;;;9.30;100.00;100621.59;4989501;28;20125;-80
2023/12/30 09:09:25;;;;;;;5.78;2.50;;;10.80;1.00;;;9.22;100.00;100612.09;4974514;28;20070;-79
2023/12/30 09:11:53;;;;;;;2.50;1.80;;;10.50;1.00;;;9.29;100.00;100617.25;4954698;28;20039;-80
2023/12/30 09:14:20;;;;;;;5.32;3.00;;;11.40;1.00;;;8.89;100.00;100556.53;4986210;28;20066;-80
2023/12/30 09:16:47;;;;;;;3.22;2.63;;;11.90;1.00;;;9.40;100.00;100649.47;4984198;28;20038;-79
2023/12/30 09:19:14;;;;;;;3.22;2.10;;;11.80;1.00;;;9.33;100.00;100637.31;4989597;28;20112;-81
2023/12/30 09:21:42;;;;;;;3.70;2.08;;;11.30;1.00;;;9.31;100.00;100625.97;4968149;28;20089;-80
2023/12/30 09:24:09;;;;;;;5.25;1.95;;;11.00;1.00;;;9.25;100.00;100613.78;4973675;28;20066;-79
2023/12/30 09:26:36;;;;;;;5.70;2.83;;;11.40;1.00;;;9.03;100.00;100558.09;4974588;28;20088;-80
2023/12/30 09:29:03;;;;;;;5.28;2.35;;;11.50;1.00;;;9.47;100.00;100634.50;4970928;28;20042;-79
2023/12/30 09:31:30;;;;;;;4.20;2.35;;;11.90;1.00;;;9.48;100.00;100621.31;4966433;28;20888;-80
2023/12/30 09:33:58;;;;;;;5.55;2.50;;;10.70;1.00;;;9.30;100.00;100584.84;4982135;28;20043;-81
2023/12/30 09:36:25;;;;;;;5.75;2.30;;;10.80;1.00;;;9.18;100.00;100563.13;4989127;28;20048;-81
2023/12/30 09:38:52;;;;;;;6.03;2.53;;;11.40;1.00;;;9.20;100.00;100573.63;4972743;28;20061;-80
2023/12/30 09:41:23;;;;;;;4.13;1.83;;;11.40;1.00;;;9.46;100.00;100623.09;4970765;28;20070;-80
2023/12/30 09:43:51;;;;;;;5.75;2.50;;;10.90;1.00;;;9.53;100.00;100605.50;4967833;28;20173;-81
2023/12/30 09:46:20;;;;;;;2.70;1.70;;;11.80;1.00;;;9.29;100.00;100569.97;4971971;28;20058;-80
2023/12/30 09:48:51;;;;;;;6.32;2.97;;;10.90;1.00;;;9.60;100.00;100632.53;4964756;28;20054;-80
2023/12/30 09:51:18;;;;;;;4.40;2.53;;;11.00;1.00;;;9.72;100.00;100639.34;4956724;28;20074;-81
2023/12/30 09:53:45;;;;;;;8.38;4.43;;;11.90;1.00;;;9.27;100.00;100579.63;4949997;28;20058;-81
2023/12/30 09:56:14;;;;;;;7.55;3.55;;;10.90;1.00;;;9.19;100.00;100553.50;4968521;28;20059;-79
2023/12/30 09:58:43;;;;;;;9.23;5.05;;;11.00;1.00;;;9.88;100.00;100655.75;4989260;28;20146;-80
2023/12/30 10:01:11;;;;;;;4.18;2.80;;;11.00;1.00;;;9.91;100.00;100653.06;4979706;28;20061;-79
2023/12/30 10:03:38;;;;;;;4.78;2.30;;;11.00;1.00;;;10.05;100.00;100656.31;4971355;28;20130;-79
2023/12/30 10:06:10;;;;;;;6.25;3.38;;;11.00;99.90;;;10.01;100.00;100646.75;4977705;28;20469;-79
2023/12/30 10:08:37;;;;;;;3.95;2.20;;;11.20;99.90;;;9.82;100.00;100614.66;4997380;28;20034;-79
2023/12/30 10:11:10;;;;;;;6.43;1.73;;;11.90;99.90;;;10.14;100.00;100662.28;4998040;28;20081;-79
2023/12/30 10:13:38;;;;;;;4.05;1.90;;;12.00;97.00;;;9.90;100.00;100622.41;4992891;28;20038;-79
2023/12/30 10:16:06;;;;;;;4.82;1.80;;;11.20;99.90;;;10.01;100.00;100645.88;4997733;28;20043;-79